Flight Track Log - Related Links

Times and Time Zones

All times are in EDT time to prevent confusion due to time zone crossing. See the CSJ405 flight status page for this flight to view local times or setup timezone preferences in your user account.

Time Position Orientation Groundspeed Altitude Reporting Facility
EDT Latitude Longitude Course Direction KTS MPH feet Rate Location/Type
Wed 01:46:15 AM 43.1667 -79.9000 90° East 10 12 800  Level Toronto Center
Wed 01:53:32 AM 43.1500 -79.8667 124° Southeast 70 81 1,900 193 Climbing Toronto Center
Wed 01:54:32 AM 43.1500 -79.8333 90° East 80 92 2,400 550 Climbing Toronto Center
Wed 01:55:32 AM 43.1500 -79.8167 90° East 80 92 3,000 600 Climbing Toronto Center
Wed 01:56:00 AM 43.1500 -79.5429 90° East  Level FlightAware Approximate
Wed 01:56:32 AM 43.1333 -79.8000 144° Southeast 80 92 3,600  Level Toronto Center
Wed 01:57:00 AM 43.1500 -79.4776 90° East  Level FlightAware Approximate
Wed 01:57:32 AM 43.1333 -79.7500 90° East 90 104 4,200  Level Toronto Center
Wed 01:58:32 AM 43.1500 -79.7167 56° Northeast 110 127 4,700 500 Climbing Toronto Center
Wed 01:59:32 AM 43.1667 -79.6833 56° Northeast 110 127 5,200 550 Climbing Toronto Center
Wed 02:00:32 AM 43.2000 -79.6500 36° Northeast 110 127 5,800 550 Climbing Toronto Center
Wed 02:01:32 AM 43.2000 -79.6167 90° East 110 127 6,300 550 Climbing Toronto Center
Wed 02:02:32 AM 43.2333 -79.5833 36° Northeast 110 127 6,900 533 Climbing Toronto Center
Wed 02:04:32 AM 43.2667 -79.5000 61° Northeast 110 127 7,900 500 Climbing Toronto Center
Wed 02:05:32 AM 43.2833 -79.4667 56° Northeast 110 127 8,400 450 Climbing Toronto Center
Wed 02:06:32 AM 43.3000 -79.4333 56° Northeast 110 127 8,800 400 Climbing Toronto Center
Wed 02:07:32 AM 43.3167 -79.4000 55° Northeast 110 127 9,200 550 Climbing Toronto Center
Wed 02:08:32 AM 43.3333 -79.3500 65° Northeast 110 127 9,900 550 Climbing Toronto Center
Wed 02:09:32 AM 43.3500 -79.3333 36° Northeast 110 127 10,300 450 Climbing Toronto Center
Wed 02:10:32 AM 43.3667 -79.2833 65° Northeast 120 138 10,800 350 Climbing Toronto Center
Wed 02:11:32 AM 43.3833 -79.2500 55° Northeast 120 138 11,000 100 Climbing Toronto Center
Wed 02:12:32 AM 43.4000 -79.2000 65° Northeast 140 161 11,000  Level Toronto Center
Wed 02:13:32 AM 43.4333 -79.1500 47° Northeast 150 173 11,000  Level Toronto Center
Wed 02:14:32 AM 43.4500 -79.1000 65° Northeast 150 173 11,000  Level Toronto Center
Wed 02:15:32 AM 43.4667 -79.0667 55° Northeast 160 184 11,000  Level Toronto Center
Wed 02:16:32 AM 43.5000 -79.0167 47° Northeast 160 184 11,000  Level Toronto Center
Wed 02:17:32 AM 43.5167 -78.9667 65° Northeast 160 184 11,000  Level Toronto Center
Wed 02:18:32 AM 43.5500 -78.9000 55° Northeast 150 173 11,000  Level Toronto Center
Wed 02:19:32 AM 43.5667 -78.8500 65° Northeast 150 173 11,000  Level Toronto Center
Wed 02:20:32 AM 43.6000 -78.8000 47° Northeast 160 184 11,000  Level Toronto Center
Wed 02:21:32 AM 43.6167 -78.7500 65° Northeast 150 173 11,000  Level Toronto Center
Wed 02:22:32 AM 43.6333 -78.7167 55° Northeast 150 173 11,000  Level Toronto Center
Wed 02:23:32 AM 43.6667 -78.6667 47° Northeast 150 173 11,000  Level Toronto Center
Wed 02:24:32 AM 43.6833 -78.6167 65° Northeast 150 173 11,000  Level Toronto Center
Wed 02:25:32 AM 43.7167 -78.5667 47° Northeast 150 173 11,000  Level Toronto Center
Wed 02:26:32 AM 43.7333 -78.5000 71° East 150 173 11,000  Level Toronto Center
Wed 02:27:32 AM 43.7500 -78.4500 65° Northeast 150 173 11,000  Level Toronto Center
Wed 02:28:32 AM 43.7667 -78.4167 55° Northeast 150 173 11,000  Level Toronto Center
Wed 02:29:32 AM 43.7833 -78.3667 65° Northeast 150 173 11,000  Level Toronto Center
Wed 02:30:32 AM 43.8167 -78.3167 47° Northeast 150 173 11,000  Level Toronto Center
Wed 02:31:32 AM 43.8333 -78.2667 65° Northeast 160 184 11,000  Level Toronto Center
Wed 02:32:32 AM 43.8667 -78.2167 47° Northeast 160 184 11,000  Level Toronto Center
Wed 02:33:32 AM 43.8833 -78.1500 71° East 160 184 11,000  Level Toronto Center
Wed 02:34:32 AM 43.9167 -78.1000 47° Northeast 160 184 11,000  Level Toronto Center
Wed 02:35:32 AM 43.9333 -78.0500 65° Northeast 160 184 11,000  Level Toronto Center
Wed 02:36:32 AM 43.9667 -77.9833 55° Northeast 160 184 11,000  Level Toronto Center
Wed 02:37:32 AM 43.9833 -77.9333 65° Northeast 160 184 11,000  Level Toronto Center
Wed 02:38:32 AM 44.0167 -77.9000 36° Northeast 160 184 11,000  Level Toronto Center
Wed 02:39:32 AM 44.0333 -77.8500 65° Northeast 160 184 11,000  Level Toronto Center
Wed 02:40:32 AM 44.0667 -77.7833 55° Northeast 160 184 11,000  Level Toronto Center
Wed 02:41:32 AM 44.0833 -77.7333 65° Northeast 170 196 11,000  Level Toronto Center
Wed 02:42:32 AM 44.1167 -77.6833 47° Northeast 160 184 11,000  Level Toronto Center
Wed 02:43:32 AM 44.1333 -77.6333 65° Northeast 160 184 11,000  Level Toronto Center
Wed 02:44:32 AM 44.1667 -77.5667 55° Northeast 170 196 11,000  Level Toronto Center
Wed 02:45:32 AM 44.1833 -77.5167 65° Northeast 160 184 11,000  Level Toronto Center
Wed 02:46:32 AM 44.2167 -77.4667 47° Northeast 160 184 11,000  Level Toronto Center
Wed 02:47:32 AM 44.2333 -77.4000 71° East 160 184 11,000  Level Toronto Center
Wed 02:48:32 AM 44.2500 -77.3500 65° Northeast 160 184 11,000  Level Toronto Center
Wed 02:49:32 AM 44.2667 -77.3000 65° Northeast 160 184 11,000  Level Toronto Center
Wed 02:50:32 AM 44.3000 -77.2333 55° Northeast 160 184 11,000  Level Toronto Center
Wed 02:51:32 AM 44.3167 -77.1833 65° Northeast 170 196 11,000  Level Toronto Center
Wed 02:52:32 AM 44.3500 -77.1333 47° Northeast 160 184 11,000  Level Toronto Center
Wed 02:53:32 AM 44.3667 -77.0833 65° Northeast 160 184 11,000  Level Toronto Center
Wed 02:53:52 AM 44.3833 -77.1000 324° Northwest 160 184 11,000  Level Montreal Center
Wed 02:54:52 AM 44.4000 -77.0500 65° Northeast 160 184 11,000  Level Montreal Center
Wed 02:55:52 AM 44.4333 -76.9833 55° Northeast 160 184 11,000  Level Montreal Center
Wed 02:57:32 AM 44.4667 -76.8500 71° East 170 196 11,000  Level Toronto Center
Wed 02:57:52 AM 44.4833 -76.8833 305° West 160 184 11,000  Level Montreal Center
Wed 02:58:52 AM 44.5000 -76.8167 71° East 160 184 11,000  Level Montreal Center
Wed 03:00:32 AM 44.5500 -76.7000 59° Northeast 160 184 11,000  Level Toronto Center
Wed 03:00:52 AM 44.5500 -76.7167 270° West 160 184 11,000  Level Montreal Center
Wed 03:01:52 AM 44.5667 -76.6500 71° East 160 184 11,000  Level Montreal Center
Wed 03:02:32 AM 44.5833 -76.5833 71° East 160 184 11,000  Level Toronto Center
Wed 03:03:32 AM 44.6000 -76.5333 65° Northeast 160 184 11,000  Level Toronto Center
Wed 03:04:32 AM 44.6333 -76.5000 35° Northeast 160 184 11,000  Level Toronto Center
Wed 03:05:32 AM 44.6500 -76.4500 65° Northeast 160 184 11,000  Level Toronto Center
Wed 03:06:32 AM 44.6833 -76.3667 61° Northeast 160 184 11,000  Level Toronto Center
Wed 03:06:52 AM 44.6833 -76.4000 270° West 160 184 11,000  Level Montreal Center
Wed 03:07:52 AM 44.7000 -76.3500 65° Northeast 160 184 11,000  Level Montreal Center
Wed 03:08:52 AM 44.7333 -76.2667 61° Northeast 160 184 11,000  Level Montreal Center
Wed 03:09:52 AM 44.7500 -76.2333 55° Northeast 160 184 11,000  Level Montreal Center
Wed 03:10:52 AM 44.7833 -76.1833 47° Northeast 160 184 11,000  Level Montreal Center
Wed 03:11:52 AM 44.8000 -76.1167 71° East 160 184 11,000  Level Montreal Center
Wed 03:12:52 AM 44.8167 -76.0667 65° Northeast 160 184 11,000  Level Montreal Center
Wed 03:13:52 AM 44.8500 -76.0167 47° Northeast 160 184 11,000  Level Montreal Center
Wed 03:14:52 AM 44.8667 -75.9500 71° East 160 184 11,000  Level Montreal Center
Wed 03:15:52 AM 44.8833 -75.9000 65° Northeast 160 184 11,000  Level Montreal Center
Wed 03:16:52 AM 44.9167 -75.8500 47° Northeast 160 184 11,000  Level Montreal Center
Wed 03:17:52 AM 44.9333 -75.8000 65° Northeast 160 184 11,000  Level Montreal Center
Wed 03:18:52 AM 44.9500 -75.7333 71° East 160 184 11,000  Level Montreal Center
Wed 03:19:52 AM 44.9833 -75.6833 47° Northeast 160 184 11,000  Level Montreal Center
Wed 03:20:52 AM 45.0000 -75.6333 65° Northeast 160 184 11,000  Level Montreal Center
Wed 03:21:52 AM 45.0167 -75.5833 65° Northeast 160 184 11,000  Level Montreal Center
Wed 03:22:52 AM 45.0500 -75.5167 55° Northeast 160 184 11,000  Level Montreal Center
Wed 03:24:32 AM 45.0833 -75.4000 68° East 150 173 11,000  Level Toronto Center
Wed 03:24:52 AM 45.0833 -75.4167 270° West 150 173 11,000  Level Montreal Center
Wed 03:25:52 AM 45.1167 -75.3667 47° Northeast 160 184 11,000  Level Montreal Center
Wed 03:26:52 AM 45.1333 -75.3333 55° Northeast 160 184 11,000  Level Montreal Center
Wed 03:27:52 AM 45.1500 -75.2500 74° East 160 184 11,000  Level Montreal Center
Wed 03:28:52 AM 45.1833 -75.2000 47° Northeast 160 184 11,000  Level Montreal Center
Wed 03:29:52 AM 45.2000 -75.1667 55° Northeast 160 184 11,000  Level Montreal Center
Wed 03:30:52 AM 45.2333 -75.0833 60° Northeast 160 184 11,000  Level Montreal Center
Wed 03:31:52 AM 45.2500 -75.0333 65° Northeast 160 184 11,000  Level Montreal Center
Wed 03:32:52 AM 45.2667 -75.0000 55° Northeast 160 184 11,000 -450 Level Montreal Center
Wed 03:33:52 AM 45.3000 -74.9167 60° Northeast 180 207 10,100 -800 Descending Montreal Center
Wed 03:34:52 AM 45.3167 -74.8667 65° Northeast 190 219 9,400 -600 Descending Montreal Center
Wed 03:35:52 AM 45.3500 -74.8000 55° Northeast 180 207 8,900 -500 Descending Montreal Center
Wed 03:36:52 AM 45.3833 -74.7500 46° Northeast 180 207 8,400 -450 Descending Montreal Center
Wed 03:37:52 AM 45.4000 -74.6833 70° East 170 196 8,000 -200 Descending Montreal Center
Wed 03:38:52 AM 45.4167 -74.6333 65° Northeast 170 196 8,000 -150 Level Montreal Center
Wed 03:39:52 AM 45.4500 -74.5667 55° Northeast 160 184 7,700 -350 Descending Montreal Center
Wed 03:40:52 AM 45.4667 -74.5167 65° Northeast 170 196 7,300 -500 Descending Montreal Center
Wed 03:41:52 AM 45.5000 -74.4333 60° Northeast 180 207 6,700 -600 Descending Montreal Center
Wed 03:42:52 AM 45.5167 -74.3833 65° Northeast 180 207 6,100 -750 Descending Montreal Center
Wed 03:43:52 AM 45.5333 -74.3167 70° East 190 219 5,200 -850 Descending Montreal Center
Wed 03:44:52 AM 45.5500 -74.2500 70° East 190 219 4,400 -800 Descending Montreal Center
Wed 03:45:52 AM 45.5833 -74.1667 60° Northeast 190 219 3,600 -1,000 Descending Montreal Center
Wed 03:46:52 AM 45.6000 -74.1167 65° Northeast 170 196 2,400 -1,150 Descending Montreal Center
Wed 03:47:52 AM 45.6333 -74.0667 46° Northeast 150 173 1,300 -850 Descending Montreal Center
Wed 03:48:52 AM 45.6500 -74.0333 54° Northeast 130 150 700 -500 Descending Montreal Center
Wed 03:49:52 AM 45.6500 -74.0000 90° East 100 115 300 -400 Descending Montreal Center

Login

Don't have an account? Register now (free) for customized features, flight alerts, and more!